createdAt,value
2019-01-13T00:01:01.066Z,98773.39
2019-01-13T00:03:36.590Z,98789.87
2019-01-13T00:06:12.635Z,98778.47
2019-01-13T00:08:48.937Z,98766.25
2019-01-13T00:11:23.179Z,98760.95
2019-01-13T00:14:00.919Z,98750.58
2019-01-13T00:16:37.222Z,98752.37
2019-01-13T00:19:11.568Z,98736.55
2019-01-13T00:21:47.595Z,98733.75
2019-01-13T00:24:25.371Z,98726.44
2019-01-13T00:27:02.012Z,98728.66
2019-01-13T00:29:41.767Z,98735.69
2019-01-13T00:32:16.391Z,98733.98
2019-01-13T00:34:52.669Z,98733.16
2019-01-13T00:37:27.233Z,98735.61
2019-01-13T00:40:05.018Z,98741.06
2019-01-13T00:42:41.269Z,98728.17
2019-01-13T00:45:17.040Z,98730.19
2019-01-13T00:47:54.371Z,98734.36
2019-01-13T00:50:29.695Z,98737.31
2019-01-13T00:53:02.622Z,98726.41
2019-01-13T00:55:38.182Z,98732.09
2019-01-13T00:58:13.552Z,98735.66
2019-01-13T01:00:49.053Z,98733.84
2019-01-13T01:03:29.709Z,98724.38
2019-01-13T01:06:06.174Z,98724.81
2019-01-13T01:08:56.853Z,98722.41
2019-01-13T01:11:28.622Z,98712.31
2019-01-13T01:14:01.080Z,98711.89
2019-01-13T01:16:32.819Z,98706.06
2019-01-13T01:19:04.621Z,98704.84
2019-01-13T01:21:36.440Z,98698.27
2019-01-13T01:24:08.119Z,98700.17
2019-01-13T01:26:39.946Z,98698.30
2019-01-13T01:29:11.815Z,98707.36
2019-01-13T01:31:43.630Z,98707.74
2019-01-13T01:34:15.420Z,98701.76
2019-01-13T01:36:47.091Z,98706.36
2019-01-13T01:39:18.717Z,98701.06
2019-01-13T01:41:51.059Z,98692.80
2019-01-13T01:44:22.835Z,98698.66
2019-01-13T01:46:54.617Z,98701.12
2019-01-13T01:49:26.469Z,98699.36
2019-01-13T01:52:00.704Z,98698.47
2019-01-13T01:54:32.372Z,98697.87
2019-01-13T01:57:04.174Z,98693.20
2019-01-13T01:59:36.589Z,98689.20
2019-01-13T02:02:09.616Z,98678.79
2019-01-13T02:04:41.375Z,98674.45
2019-01-13T02:07:13.098Z,98680.05
2019-01-13T02:09:44.730Z,98674.82
2019-01-13T02:12:16.387Z,98674.66
2019-01-13T02:14:47.919Z,98666.19
2019-01-13T02:17:19.609Z,98660.25
2019-01-13T02:19:51.952Z,98653.92
2019-01-13T02:22:23.597Z,98653.05
2019-01-13T02:24:55.564Z,98646.49
2019-01-13T02:27:27.120Z,98655.55
2019-01-13T02:29:58.921Z,98644.61
2019-01-13T02:32:30.784Z,98648.66
2019-01-13T02:35:02.901Z,98645.23
2019-01-13T02:37:34.604Z,98638.53
2019-01-13T02:40:07.720Z,98632.80
2019-01-13T02:42:39.547Z,98629.80
2019-01-13T02:45:15.850Z,98623.95
2019-01-13T02:47:47.372Z,98623.47
2019-01-13T02:50:19.494Z,98622.60
2019-01-13T02:52:51.373Z,98610.16
2019-01-13T02:55:22.896Z,98609.16
2019-01-13T02:57:54.432Z,98603.12
2019-01-13T03:00:27.704Z,98592.87
2019-01-13T03:03:00.663Z,98589.20
2019-01-13T03:05:34.001Z,98585.30
2019-01-13T03:08:05.764Z,98581.92
2019-01-13T03:10:37.292Z,98570.02
2019-01-13T03:13:12.185Z,98577.11
2019-01-13T03:15:44.019Z,98560.73
2019-01-13T03:18:15.700Z,98566.53
2019-01-13T03:20:47.423Z,98559.27
2019-01-13T03:23:19.024Z,98549.80
2019-01-13T03:25:50.754Z,98534.31
2019-01-13T03:28:22.529Z,98533.00
2019-01-13T03:30:54.163Z,98538.64
2019-01-13T03:33:25.717Z,98544.73
2019-01-13T03:35:57.458Z,98538.45
2019-01-13T03:38:29.001Z,98543.27
2019-01-13T03:41:00.538Z,98553.09
2019-01-13T03:43:32.334Z,98552.98
2019-01-13T03:46:04.427Z,98562.45
2019-01-13T03:48:36.078Z,98562.19
2019-01-13T03:51:08.146Z,98551.94
2019-01-13T03:53:39.852Z,98544.98
2019-01-13T03:56:12.125Z,98554.70
2019-01-13T03:58:44.042Z,98554.98
2019-01-13T04:01:18.681Z,98548.77
2019-01-13T04:03:50.507Z,98529.95
2019-01-13T04:06:22.551Z,98524.25
2019-01-13T04:08:54.077Z,98529.80
2019-01-13T04:11:25.604Z,98530.13
2019-01-13T04:13:57.361Z,98536.33
2019-01-13T04:16:29.822Z,98532.85
2019-01-13T04:19:01.571Z,98534.84
2019-01-13T04:21:33.089Z,98533.45
2019-01-13T04:24:04.831Z,98536.31
2019-01-13T04:26:36.454Z,98527.25
2019-01-13T04:29:08.209Z,98520.26
2019-01-13T04:31:39.914Z,98527.11
2019-01-13T04:34:11.589Z,98525.98
2019-01-13T04:36:43.442Z,98516.00
2019-01-13T04:39:15.319Z,98502.27
2019-01-13T04:41:46.937Z,98505.24
2019-01-13T04:44:18.418Z,98511.31
2019-01-13T04:46:50.337Z,98511.22
2019-01-13T04:49:25.051Z,98514.90
2019-01-13T04:51:57.135Z,98532.44
2019-01-13T04:54:28.907Z,98529.87
2019-01-13T04:57:00.547Z,98522.80
2019-01-13T04:59:32.272Z,98525.08
2019-01-13T05:02:03.958Z,98530.42
2019-01-13T05:04:35.441Z,98529.17
2019-01-13T05:07:06.977Z,98523.68
2019-01-13T05:09:38.637Z,98528.33
2019-01-13T05:12:10.286Z,98527.68
2019-01-13T05:14:42.103Z,98526.08
2019-01-13T05:17:13.800Z,98528.73
2019-01-13T05:19:45.257Z,98526.11
2019-01-13T05:22:16.927Z,98527.53
2019-01-13T05:24:48.560Z,98528.52
2019-01-13T05:27:19.985Z,98524.84
2019-01-13T05:29:51.619Z,98539.81
2019-01-13T05:32:23.286Z,98540.17
2019-01-13T05:34:54.985Z,98531.31
2019-01-13T05:37:26.616Z,98534.67
2019-01-13T05:39:58.327Z,98539.16
2019-01-13T05:42:29.870Z,98527.47
2019-01-13T05:45:01.455Z,98521.23
2019-01-13T05:47:33.279Z,98513.11
2019-01-13T05:50:05.227Z,98515.45
2019-01-13T05:52:38.005Z,98513.28
2019-01-13T05:55:09.687Z,98507.61
2019-01-13T05:57:41.508Z,98515.10
2019-01-13T06:00:17.950Z,98517.38
2019-01-13T06:02:49.645Z,98504.11
2019-01-13T06:05:21.162Z,98502.47
2019-01-13T06:07:52.769Z,98509.70
2019-01-13T06:10:24.642Z,98512.33
2019-01-13T06:12:56.390Z,98503.84
2019-01-13T06:15:28.620Z,98502.55
2019-01-13T06:18:00.175Z,98500.69
2019-01-13T06:20:31.799Z,98501.44
2019-01-13T06:23:03.782Z,98491.33
2019-01-13T06:25:35.552Z,98483.82
2019-01-13T06:28:07.339Z,98463.88
2019-01-13T06:30:39.160Z,98447.84
2019-01-13T06:33:10.760Z,98443.67
2019-01-13T06:35:42.372Z,98439.77
2019-01-13T06:38:14.073Z,98436.63
2019-01-13T06:40:45.626Z,98423.78
2019-01-13T06:43:17.808Z,98427.86
2019-01-13T06:45:49.633Z,98424.00
2019-01-13T06:48:22.501Z,98426.72
2019-01-13T06:50:54.268Z,98426.30
2019-01-13T06:53:27.067Z,98420.10
2019-01-13T06:55:58.752Z,98433.50
2019-01-13T06:58:31.163Z,98437.00
2019-01-13T07:01:02.979Z,98436.86
2019-01-13T07:03:34.797Z,98448.20
2019-01-13T07:06:06.313Z,98458.82
2019-01-13T07:08:37.860Z,98462.88
2019-01-13T07:11:09.507Z,98444.86
2019-01-13T07:13:41.468Z,98440.04
2019-01-13T07:16:13.191Z,98440.27
2019-01-13T07:18:44.912Z,98450.76
2019-01-13T07:21:16.745Z,98461.94
2019-01-13T07:23:48.372Z,98469.41
2019-01-13T07:26:20.366Z,98465.05
2019-01-13T07:28:52.896Z,98463.66
2019-01-13T07:31:25.144Z,98475.47
2019-01-13T07:33:58.166Z,98471.22
2019-01-13T07:36:30.052Z,98470.58
2019-01-13T07:39:01.766Z,98474.41
2019-01-13T07:41:33.878Z,98484.40
2019-01-13T07:44:06.338Z,98487.75
2019-01-13T07:46:38.083Z,98482.23
2019-01-13T07:49:10.108Z,98485.78
2019-01-13T07:51:41.795Z,98479.25
2019-01-13T07:54:14.282Z,98478.53
2019-01-13T07:56:47.478Z,98483.28
2019-01-13T07:59:19.540Z,98485.11
2019-01-13T08:01:51.647Z,98479.94
2019-01-13T08:04:24.237Z,98483.42
2019-01-13T08:06:56.484Z,98487.03
2019-01-13T08:09:28.487Z,98489.57
2019-01-13T08:12:01.235Z,98484.77
2019-01-13T08:14:33.357Z,98486.58
2019-01-13T08:17:05.108Z,98481.09
2019-01-13T08:19:37.058Z,98483.75
2019-01-13T08:22:08.847Z,98483.75
2019-01-13T08:24:40.818Z,98477.94
2019-01-13T08:27:13.168Z,98489.02
2019-01-13T08:29:44.721Z,98485.73
2019-01-13T08:32:16.437Z,98477.11
2019-01-13T08:34:48.510Z,98475.38
2019-01-13T08:37:20.904Z,98488.05
2019-01-13T08:39:52.577Z,98481.64
2019-01-13T08:42:24.555Z,98489.42
2019-01-13T08:44:56.311Z,98493.67
2019-01-13T08:47:29.321Z,98489.02
2019-01-13T08:50:03.252Z,98489.95
2019-01-13T08:52:35.579Z,98496.47
2019-01-13T08:55:09.134Z,98503.72
2019-01-13T08:57:41.279Z,98502.98
2019-01-13T09:00:26.327Z,98513.47
2019-01-13T09:03:00.129Z,98506.55
2019-01-13T09:05:32.036Z,98502.89
2019-01-13T09:08:04.629Z,98505.59
2019-01-13T09:10:37.604Z,98509.28
2019-01-13T09:13:09.700Z,98522.64
2019-01-13T09:15:41.624Z,98511.70
2019-01-13T09:18:13.798Z,98517.91
2019-01-13T09:20:46.332Z,98521.73
2019-01-13T09:23:21.699Z,98529.61
2019-01-13T09:25:58.486Z,98525.36
2019-01-13T09:28:31.394Z,98518.97
2019-01-13T09:31:03.412Z,98518.22
2019-01-13T09:33:36.302Z,98517.50
2019-01-13T09:36:08.709Z,98510.77
2019-01-13T09:38:41.508Z,98506.39
2019-01-13T09:41:16.102Z,98524.11
2019-01-13T09:43:48.724Z,98516.25
2019-01-13T09:46:22.334Z,98520.46
2019-01-13T09:48:56.437Z,98523.44
2019-01-13T09:51:32.835Z,98516.50
2019-01-13T09:54:08.104Z,98523.65
2019-01-13T09:56:45.684Z,98518.25
2019-01-13T09:59:23.020Z,98506.38
2019-01-13T10:02:05.432Z,98507.65
2019-01-13T10:04:41.264Z,98490.20
2019-01-13T10:07:17.685Z,98494.48
2019-01-13T10:09:51.929Z,98492.43
2019-01-13T10:12:29.282Z,98483.35
2019-01-13T10:15:06.870Z,98473.49
2019-01-13T10:17:41.662Z,98478.38
2019-01-13T10:20:21.823Z,98467.11
2019-01-13T10:22:57.194Z,98469.15
2019-01-13T10:25:38.330Z,98461.73
2019-01-13T10:28:18.669Z,98463.98
2019-01-13T10:31:03.103Z,98457.75
2019-01-13T10:33:34.531Z,98460.22
2019-01-13T10:36:13.388Z,98460.60
2019-01-13T10:38:49.510Z,98448.72
2019-01-13T10:41:27.553Z,98451.90
2019-01-13T10:44:08.729Z,98441.61
2019-01-13T10:46:45.221Z,98439.55
2019-01-13T10:49:22.769Z,98433.98
2019-01-13T10:51:56.196Z,98429.03
2019-01-13T10:54:35.027Z,98424.17
2019-01-13T10:57:11.076Z,98422.55
2019-01-13T10:59:47.895Z,98416.22
2019-01-13T11:02:21.104Z,98404.85
2019-01-13T11:04:56.849Z,98399.37
2019-01-13T11:07:33.806Z,98395.17
2019-01-13T11:10:14.302Z,98390.97
2019-01-13T11:12:51.185Z,98383.70
2019-01-13T11:15:25.994Z,98383.86
2019-01-13T11:18:03.080Z,98379.25
2019-01-13T11:20:45.591Z,98381.46
2019-01-13T11:23:21.673Z,98368.24
2019-01-13T11:25:59.525Z,98366.63
2019-01-13T11:28:34.998Z,98366.88
2019-01-13T11:31:09.454Z,98364.45
2019-01-13T11:33:41.970Z,98359.99
2019-01-13T11:36:14.185Z,98359.43
2019-01-13T11:38:46.372Z,98362.01
2019-01-13T11:41:18.599Z,98354.55
2019-01-13T11:43:50.763Z,98361.17
2019-01-13T11:46:23.664Z,98349.16
2019-01-13T11:48:55.525Z,98344.39
2019-01-13T11:51:28.386Z,98343.63
2019-01-13T11:54:01.319Z,98340.27
2019-01-13T11:56:33.993Z,98334.13
2019-01-13T11:59:06.023Z,98331.50
2019-01-13T12:01:37.697Z,98329.86
2019-01-13T12:04:11.401Z,98325.95
2019-01-13T12:06:43.775Z,98317.63
2019-01-13T12:09:15.793Z,98317.67
2019-01-13T12:11:47.520Z,98306.14
2019-01-13T12:14:20.915Z,98304.86
2019-01-13T12:16:52.771Z,98302.28
2019-01-13T12:19:25.721Z,98298.53
2019-01-13T12:21:57.970Z,98292.16
2019-01-13T12:24:29.602Z,98295.45
2019-01-13T12:27:03.986Z,98288.18
2019-01-13T12:29:35.928Z,98269.44
2019-01-13T12:32:08.273Z,98262.16
2019-01-13T12:34:40.982Z,98266.11
2019-01-13T12:37:14.763Z,98256.58
2019-01-13T12:39:46.453Z,98255.47
2019-01-13T12:42:19.094Z,98264.54
2019-01-13T12:44:53.267Z,98251.08
2019-01-13T12:47:25.253Z,98242.46
2019-01-13T12:49:57.851Z,98236.52
2019-01-13T12:52:30.165Z,98237.73
2019-01-13T12:55:03.182Z,98233.66
2019-01-13T12:57:35.309Z,98238.60
2019-01-13T13:00:09.969Z,98234.86
2019-01-13T13:02:41.818Z,98236.02
2019-01-13T13:05:15.625Z,98233.06
2019-01-13T13:07:48.184Z,98228.84
2019-01-13T13:10:40.183Z,98224.01
2019-01-13T13:13:11.736Z,98225.66
2019-01-13T13:15:43.956Z,98228.77
2019-01-13T13:18:15.789Z,98225.94
2019-01-13T13:20:49.092Z,98231.17
2019-01-13T13:23:21.105Z,98223.95
2019-01-13T13:25:53.121Z,98228.42
2019-01-13T13:28:25.729Z,98233.61
2019-01-13T13:30:57.664Z,98242.10
2019-01-13T13:33:29.765Z,98246.81
2019-01-13T13:36:03.781Z,98248.88
2019-01-13T13:38:36.292Z,98252.47
2019-01-13T13:41:08.068Z,98249.82
2019-01-13T13:43:37.368Z,98239.39
2019-01-13T13:46:09.629Z,98232.60
2019-01-13T13:48:42.175Z,98229.64
2019-01-13T13:51:14.302Z,98207.22
2019-01-13T13:53:46.642Z,98200.91
2019-01-13T13:56:18.684Z,98187.78
2019-01-13T13:58:50.805Z,98181.22
2019-01-13T14:01:22.985Z,98174.19
2019-01-13T14:03:57.390Z,98173.25
2019-01-13T14:06:29.369Z,98181.08
2019-01-13T14:09:01.446Z,98182.16
2019-01-13T14:11:33.338Z,98177.34
2019-01-13T14:14:05.842Z,98174.94
2019-01-13T14:16:38.341Z,98182.00
2019-01-13T14:19:10.356Z,98173.67
2019-01-13T14:21:42.752Z,98175.38
2019-01-13T14:24:14.771Z,98163.31
2019-01-13T14:26:46.666Z,98156.21
2019-01-13T14:29:19.113Z,98157.23
2019-01-13T14:31:51.156Z,98149.03
2019-01-13T14:34:23.154Z,98156.30
2019-01-13T14:36:55.292Z,98158.19
2019-01-13T14:39:27.492Z,98167.34
2019-01-13T14:41:59.550Z,98160.66
2019-01-13T14:44:31.295Z,98166.06
2019-01-13T14:47:03.289Z,98179.45
2019-01-13T14:49:35.102Z,98182.80
2019-01-13T14:52:06.725Z,98191.14
2019-01-13T14:54:38.764Z,98189.66
2019-01-13T14:57:10.797Z,98179.14
2019-01-13T14:59:43.316Z,98173.95
2019-01-13T15:02:15.626Z,98173.17
2019-01-13T15:04:47.766Z,98162.45
2019-01-13T15:07:19.499Z,98155.98
2019-01-13T15:09:52.797Z,98168.98
2019-01-13T15:12:24.685Z,98177.91
2019-01-13T15:14:57.892Z,98178.23
2019-01-13T15:17:29.738Z,98178.91
2019-01-13T15:20:01.674Z,98174.77
2019-01-13T15:22:33.608Z,98167.16
2019-01-13T15:25:06.771Z,98168.48
2019-01-13T15:27:38.773Z,98170.01
2019-01-13T15:30:23.012Z,98176.44
2019-01-13T15:32:55.104Z,98178.33
2019-01-13T15:35:26.996Z,98189.59
2019-01-13T15:37:59.925Z,98192.02
2019-01-13T15:40:31.741Z,98202.27
2019-01-13T15:43:04.397Z,98197.20
2019-01-13T15:45:38.354Z,98186.61
2019-01-13T15:48:10.855Z,98178.01
2019-01-13T15:50:42.910Z,98173.44
2019-01-13T15:53:14.795Z,98165.72
2019-01-13T15:55:48.029Z,98158.12
2019-01-13T15:58:20.358Z,98161.44
2019-01-13T16:00:53.418Z,98159.00
2019-01-13T16:03:25.762Z,98163.73
2019-01-13T16:05:58.494Z,98166.17
2019-01-13T16:08:30.634Z,98159.89
2019-01-13T16:11:03.404Z,98167.43
2019-01-13T16:13:35.412Z,98171.13
2019-01-13T16:16:07.374Z,98169.94
2019-01-13T16:18:39.933Z,98170.28
2019-01-13T16:21:13.640Z,98170.30
2019-01-13T16:23:45.684Z,98178.55
2019-01-13T16:26:19.081Z,98182.55
2019-01-13T16:28:51.145Z,98187.38
2019-01-13T16:31:24.494Z,98178.72
2019-01-13T16:33:57.582Z,98170.96
2019-01-13T16:36:30.500Z,98167.12
2019-01-13T16:39:02.259Z,98169.29
2019-01-13T16:41:35.314Z,98174.69
2019-01-13T16:44:07.505Z,98158.63
2019-01-13T16:46:43.615Z,98162.63
2019-01-13T16:49:14.398Z,98167.69
2019-01-13T16:51:47.083Z,98160.58
2019-01-13T16:54:19.437Z,98149.81
2019-01-13T16:56:51.270Z,98147.17
2019-01-13T16:59:22.960Z,98143.56
2019-01-13T17:01:55.139Z,98140.50
2019-01-13T17:04:28.979Z,98136.97
2019-01-13T17:07:00.421Z,98152.14
2019-01-13T17:09:32.168Z,98148.14
2019-01-13T17:12:03.853Z,98155.42
2019-01-13T17:14:35.641Z,98160.75
2019-01-13T17:17:07.411Z,98152.91
2019-01-13T17:19:39.308Z,98164.86
2019-01-13T17:22:11.403Z,98178.14
2019-01-13T17:24:43.527Z,98184.17
2019-01-13T17:27:15.697Z,98187.59
2019-01-13T17:29:47.918Z,98177.27
2019-01-13T17:32:20.109Z,98174.56
2019-01-13T17:34:52.531Z,98165.23
2019-01-13T17:37:25.078Z,98148.80
2019-01-13T17:39:57.585Z,98141.23
2019-01-13T17:42:29.513Z,98136.00
2019-01-13T17:45:01.717Z,98138.34
2019-01-13T17:47:33.865Z,98144.56
2019-01-13T17:50:06.771Z,98150.59
2019-01-13T17:52:39.678Z,98161.34
2019-01-13T17:55:15.539Z,98167.68
2019-01-13T17:57:47.729Z,98174.36
2019-01-13T18:00:39.888Z,98175.00
2019-01-13T18:03:17.559Z,98168.52
2019-01-13T18:05:49.536Z,98165.54
2019-01-13T18:08:21.907Z,98166.78
2019-01-13T18:10:54.205Z,98165.97
2019-01-13T18:13:35.978Z,98171.09
2019-01-13T18:16:08.259Z,98162.95
2019-01-13T18:18:39.901Z,98166.59
2019-01-13T18:21:13.307Z,98164.55
2019-01-13T18:23:45.959Z,98164.66
2019-01-13T18:26:18.017Z,98153.52
2019-01-13T18:28:49.881Z,98152.16
2019-01-13T18:31:21.679Z,98156.25
2019-01-13T18:33:54.711Z,98153.57
2019-01-13T18:36:26.625Z,98150.89
2019-01-13T18:38:58.533Z,98145.77
2019-01-13T18:41:30.362Z,98136.36
2019-01-13T18:44:02.601Z,98132.00
2019-01-13T18:47:07.321Z,98122.27
2019-01-13T18:49:39.256Z,98111.24
2019-01-13T18:52:11.056Z,98104.30
2019-01-13T18:54:42.679Z,98109.94
2019-01-13T18:57:14.782Z,98121.05
2019-01-13T18:59:46.823Z,98125.14
2019-01-13T19:02:18.837Z,98113.38
2019-01-13T19:04:57.239Z,98109.13
2019-01-13T19:07:24.766Z,98104.81
2019-01-13T19:09:56.622Z,98095.00
2019-01-13T19:12:28.751Z,98087.59
2019-01-13T19:15:03.560Z,98073.26
2019-01-13T19:17:35.620Z,98068.06
2019-01-13T19:20:30.976Z,98062.44
2019-01-13T19:23:19.354Z,98066.22
2019-01-13T19:25:51.231Z,98063.47
2019-01-13T19:28:23.263Z,98065.33
2019-01-13T19:30:55.523Z,98069.00
2019-01-13T19:33:27.477Z,98072.60
2019-01-13T19:35:59.586Z,98089.54
2019-01-13T19:38:32.297Z,98085.45
2019-01-13T19:41:04.328Z,98078.75
2019-01-13T19:43:36.629Z,98075.56
2019-01-13T19:46:09.574Z,98072.75
2019-01-13T19:48:48.435Z,98062.72
2019-01-13T19:51:20.353Z,98050.88
2019-01-13T19:53:52.918Z,98063.80
2019-01-13T19:56:24.879Z,98077.72
2019-01-13T19:58:57.093Z,98092.88
2019-01-13T20:01:30.819Z,98101.73
2019-01-13T20:04:02.927Z,98085.52
2019-01-13T20:06:34.848Z,98099.80
2019-01-13T20:09:11.810Z,98105.47
2019-01-13T20:11:44.104Z,98111.84
2019-01-13T20:14:16.354Z,98118.29
2019-01-13T20:16:49.395Z,98129.02
2019-01-13T20:19:22.971Z,98132.97
2019-01-13T20:21:56.991Z,98126.94
2019-01-13T20:24:29.298Z,98127.26
2019-01-13T20:27:01.507Z,98133.48
2019-01-13T20:29:36.146Z,98148.13
2019-01-13T20:32:08.381Z,98152.41
2019-01-13T20:34:41.222Z,98153.62
2019-01-13T20:37:13.156Z,98150.69
2019-01-13T20:39:45.507Z,98144.98
2019-01-13T20:42:18.419Z,98148.08
2019-01-13T20:44:50.525Z,98132.14
2019-01-13T20:47:22.743Z,98119.40
2019-01-13T20:49:54.791Z,98113.38
2019-01-13T20:52:28.033Z,98115.14
2019-01-13T20:55:00.682Z,98108.70
2019-01-13T20:57:33.135Z,98105.13
2019-01-13T21:00:08.410Z,98100.20
2019-01-13T21:02:42.884Z,98092.34
2019-01-13T21:05:15.083Z,98072.86
2019-01-13T21:07:47.428Z,98079.62
2019-01-13T21:10:19.925Z,98079.30
2019-01-13T21:12:52.386Z,98072.49
2019-01-13T21:15:36.571Z,98067.33
2019-01-13T21:18:08.854Z,98068.30
2019-01-13T21:20:42.956Z,98070.50
2019-01-13T21:23:16.238Z,98061.27
2019-01-13T21:25:49.349Z,98069.50
2019-01-13T21:28:22.864Z,98083.75
2019-01-13T21:30:58.934Z,98074.44
2019-01-13T21:33:31.471Z,98066.48
2019-01-13T21:36:04.236Z,98068.01
2019-01-13T21:38:36.305Z,98055.17
2019-01-13T21:41:08.391Z,98046.20
2019-01-13T21:43:40.754Z,98051.05
2019-01-13T21:46:15.238Z,98048.08
2019-01-13T21:48:47.897Z,98046.64
2019-01-13T21:51:19.901Z,98051.33
2019-01-13T21:53:53.986Z,98042.86
2019-01-13T21:56:26.587Z,98035.51
2019-01-13T21:58:58.946Z,98030.95
2019-01-13T22:01:35.495Z,98036.23
2019-01-13T22:04:05.756Z,98020.31
2019-01-13T22:06:38.007Z,98008.43
2019-01-13T22:09:14.071Z,98008.82
2019-01-13T22:11:46.518Z,98012.57
2019-01-13T22:14:19.275Z,98010.28
2019-01-13T22:16:51.419Z,98009.70
2019-01-13T22:19:26.361Z,98007.66
2019-01-13T22:21:59.798Z,98005.80
2019-01-13T22:24:31.800Z,98014.30
2019-01-13T22:27:04.611Z,98013.11
2019-01-13T22:29:36.974Z,98015.78
2019-01-13T22:32:09.081Z,98016.98
2019-01-13T22:34:41.179Z,98002.66
2019-01-13T22:37:13.203Z,97991.91
2019-01-13T22:39:44.830Z,97985.08
2019-01-13T22:42:16.900Z,97987.52
2019-01-13T22:44:48.835Z,97987.05
2019-01-13T22:47:22.553Z,97982.53
2019-01-13T22:49:54.205Z,97987.45
2019-01-13T22:52:25.943Z,97982.08
2019-01-13T22:54:57.907Z,97980.07
2019-01-13T22:57:29.646Z,97984.00
2019-01-13T23:00:01.182Z,97982.27
2019-01-13T23:02:33.216Z,97981.08
2019-01-13T23:05:05.471Z,97991.17
2019-01-13T23:07:37.798Z,97995.23
2019-01-13T23:10:10.081Z,97993.31
2019-01-13T23:12:42.099Z,97990.00
2019-01-13T23:15:14.288Z,97992.03
2019-01-13T23:17:46.430Z,97986.77
2019-01-13T23:20:18.134Z,97980.96
2019-01-13T23:22:50.131Z,97980.52
2019-01-13T23:25:21.948Z,97979.23
2019-01-13T23:27:54.949Z,97976.11
2019-01-13T23:30:26.717Z,97968.28
2019-01-13T23:32:59.744Z,97952.89
2019-01-13T23:35:31.661Z,97945.08
2019-01-13T23:38:04.314Z,97947.03
2019-01-13T23:40:36.290Z,97937.66
2019-01-13T23:43:08.324Z,97928.96
2019-01-13T23:45:40.235Z,97933.80
2019-01-13T23:48:11.990Z,97921.63
2019-01-13T23:50:43.787Z,97913.14
2019-01-13T23:53:15.467Z,97915.12
2019-01-13T23:55:47.138Z,97909.15
2019-01-13T23:58:18.958Z,97901.49
